createdAt,value
2023-04-19T00:00:10.610Z,70.55
2023-04-19T00:01:10.630Z,70.34
2023-04-19T00:02:10.670Z,70.34
2023-04-19T00:03:10.819Z,70.24
2023-04-19T00:04:10.703Z,70.24
2023-04-19T00:05:10.581Z,70.34
2023-04-19T00:06:10.568Z,70.34
2023-04-19T00:07:10.571Z,70.34
2023-04-19T00:08:10.539Z,69.93
2023-04-19T00:09:10.530Z,69.93
2023-04-19T00:10:10.516Z,69.62
2023-04-19T00:11:10.493Z,69.73
2023-04-19T00:12:10.526Z,69.52
2023-04-19T00:13:10.474Z,69.42
2023-04-19T00:14:10.472Z,69.21
2023-04-19T00:15:10.456Z,69.21
2023-04-19T00:16:10.499Z,68.90
2023-04-19T00:17:10.601Z,69.21
2023-04-19T00:18:10.465Z,68.70
2023-04-19T00:19:10.423Z,68.08
2023-04-19T00:20:10.445Z,68.49
2023-04-19T00:21:10.386Z,68.59
2023-04-19T00:22:10.405Z,68.39
2023-04-19T00:23:10.359Z,68.29
2023-04-19T00:24:10.384Z,67.97
2023-04-19T00:25:10.342Z,67.66
2023-04-19T00:26:10.336Z,67.77
2023-04-19T00:27:10.339Z,67.77
2023-04-19T00:28:10.319Z,67.36
2023-04-19T00:29:10.303Z,67.15
2023-04-19T00:30:10.296Z,67.05
2023-04-19T00:31:10.303Z,67.15
2023-04-19T00:32:10.284Z,66.84
2023-04-19T00:33:10.293Z,66.33
2023-04-19T00:34:10.252Z,66.74
2023-04-19T00:35:10.244Z,66.12
2023-04-19T00:36:10.294Z,65.19
2023-04-19T00:37:10.244Z,65.40
2023-04-19T00:38:10.209Z,65.71
2023-04-19T00:39:10.218Z,65.40
2023-04-19T00:40:10.189Z,65.30
2023-04-19T00:41:10.205Z,64.99
2023-04-19T00:42:10.178Z,65.09
2023-04-19T00:43:10.166Z,64.99
2023-04-19T00:44:10.145Z,65.19
2023-04-19T00:45:10.129Z,65.30
2023-04-19T00:46:10.181Z,65.09
2023-04-19T00:47:10.116Z,65.50
2023-04-19T00:48:10.134Z,65.30
2023-04-19T00:49:10.100Z,65.50
2023-04-19T00:50:10.105Z,65.40
2023-04-19T00:51:10.091Z,65.19
2023-04-19T00:52:10.078Z,65.50
2023-04-19T00:53:10.191Z,65.40
2023-04-19T00:54:10.041Z,65.50
2023-04-19T00:55:10.035Z,65.40
2023-04-19T00:56:10.040Z,65.33
2023-04-19T00:57:10.009Z,65.61
2023-04-19T00:58:10.017Z,65.74
2023-04-19T00:59:09.992Z,65.84
2023-04-19T01:00:09.997Z,66.05
2023-04-19T01:01:09.996Z,66.15
2023-04-19T01:02:09.976Z,66.05
2023-04-19T01:03:10.101Z,66.15
2023-04-19T01:04:10.067Z,65.95
2023-04-19T01:05:09.919Z,66.15
2023-04-19T01:06:09.944Z,66.25
2023-04-19T01:07:09.904Z,66.15
2023-04-19T01:08:09.901Z,66.67
2023-04-19T01:09:09.880Z,66.56
2023-04-19T01:10:09.928Z,66.36
2023-04-19T01:11:09.889Z,66.25
2023-04-19T01:12:09.856Z,66.15
2023-04-19T01:13:09.851Z,65.84
2023-04-19T01:14:09.838Z,66.15
2023-04-19T01:15:09.809Z,65.74
2023-04-19T01:16:09.899Z,65.84
2023-04-19T01:17:09.800Z,65.53
2023-04-19T01:18:09.791Z,65.53
2023-04-19T01:19:09.775Z,65.43
2023-04-19T01:20:09.777Z,65.56
2023-04-19T01:21:09.794Z,66.08
2023-04-19T01:22:09.745Z,65.98
2023-04-19T01:23:09.730Z,65.77
2023-04-19T01:24:09.732Z,65.77
2023-04-19T01:25:09.721Z,65.88
2023-04-19T01:26:09.740Z,65.88
2023-04-19T01:27:09.689Z,66.39
2023-04-19T01:28:09.688Z,66.18
2023-04-19T01:29:09.672Z,66.21
2023-04-19T01:30:09.724Z,66.52
2023-04-19T01:31:09.700Z,66.52
2023-04-19T01:32:09.650Z,66.31
2023-04-19T01:33:09.635Z,66.42
2023-04-19T01:34:09.632Z,66.42
2023-04-19T01:35:09.621Z,66.31
2023-04-19T01:36:09.630Z,66.21
2023-04-19T01:37:09.596Z,66.31
2023-04-19T01:38:09.575Z,66.21
2023-04-19T01:39:09.563Z,66.63
2023-04-19T01:40:09.612Z,66.52
2023-04-19T01:41:09.577Z,66.83
2023-04-19T01:42:09.536Z,66.52
2023-04-19T01:43:09.524Z,66.73
2023-04-19T01:44:09.515Z,66.52
2023-04-19T01:45:09.509Z,66.42
2023-04-19T01:46:09.504Z,66.45
2023-04-19T01:47:09.630Z,66.86
2023-04-19T01:48:09.501Z,67.17
2023-04-19T01:49:09.476Z,67.07
2023-04-19T01:50:09.458Z,67.38
2023-04-19T01:51:09.476Z,67.17
2023-04-19T01:52:09.440Z,67.17
2023-04-19T01:53:09.412Z,67.48
2023-04-19T01:54:09.406Z,67.48
2023-04-19T01:55:09.389Z,67.38
2023-04-19T01:56:09.396Z,67.27
2023-04-19T01:57:09.370Z,67.38
2023-04-19T01:58:09.360Z,67.58
2023-04-19T01:59:09.381Z,67.90
2023-04-19T02:00:09.385Z,67.48
2023-04-19T02:01:09.389Z,67.69
2023-04-19T02:02:09.443Z,68.00
2023-04-19T02:03:09.415Z,68.13
2023-04-19T02:04:09.328Z,68.13
2023-04-19T02:05:09.330Z,68.44
2023-04-19T02:06:09.293Z,68.13
2023-04-19T02:07:09.281Z,68.44
2023-04-19T02:08:09.258Z,68.44
2023-04-19T02:09:09.256Z,68.34
2023-04-19T02:10:09.295Z,67.93
2023-04-19T02:11:09.224Z,68.13
2023-04-19T02:12:09.260Z,68.44
2023-04-19T02:13:09.208Z,68.24
2023-04-19T02:14:09.196Z,68.34
2023-04-19T02:15:09.197Z,68.44
2023-04-19T02:16:09.247Z,68.75
2023-04-19T02:17:09.180Z,68.96
2023-04-19T02:18:09.161Z,69.17
2023-04-19T02:19:09.133Z,69.48
2023-04-19T02:20:09.182Z,69.89
2023-04-19T02:21:09.116Z,70.09
2023-04-19T02:22:09.113Z,69.82
2023-04-19T02:23:09.111Z,69.92
2023-04-19T02:24:09.093Z,69.92
2023-04-19T02:25:09.093Z,69.71
2023-04-19T02:26:09.067Z,70.12
2023-04-19T02:27:09.059Z,70.33
2023-04-19T02:28:09.049Z,70.23
2023-04-19T02:29:09.044Z,70.23
2023-04-19T02:30:09.052Z,70.23
2023-04-19T02:31:09.013Z,70.23
2023-04-19T02:32:09.166Z,70.54
2023-04-19T02:33:08.997Z,70.43
2023-04-19T02:34:08.990Z,70.75
2023-04-19T02:35:09.000Z,70.75
2023-04-19T02:36:08.968Z,70.95
2023-04-19T02:37:08.968Z,70.95
2023-04-19T02:38:08.958Z,71.09
2023-04-19T02:39:08.930Z,71.09
2023-04-19T02:40:08.974Z,71.61
2023-04-19T02:41:08.925Z,71.40
2023-04-19T02:42:08.927Z,71.30
2023-04-19T02:43:08.889Z,72.33
2023-04-19T02:44:08.899Z,72.22
2023-04-19T02:45:08.894Z,72.12
2023-04-19T02:46:08.877Z,71.50
2023-04-19T02:47:08.850Z,71.81
2023-04-19T02:48:08.913Z,71.61
2023-04-19T02:49:08.825Z,71.92
2023-04-19T02:50:08.825Z,72.22
2023-04-19T02:51:08.800Z,71.92
2023-04-19T02:52:08.795Z,72.43
2023-04-19T02:53:08.793Z,72.02
2023-04-19T02:54:08.768Z,71.92
2023-04-19T02:55:08.782Z,72.33
2023-04-19T02:56:08.752Z,72.64
2023-04-19T02:57:08.743Z,72.64
2023-04-19T02:58:08.747Z,72.95
2023-04-19T02:59:08.730Z,73.05
2023-04-19T03:00:08.747Z,72.85
2023-04-19T03:01:08.765Z,72.98
2023-04-19T03:02:08.761Z,73.29
2023-04-19T03:03:08.800Z,73.19
2023-04-19T03:04:08.720Z,73.29
2023-04-19T03:05:08.659Z,73.19
2023-04-19T03:06:08.643Z,74.63
2023-04-19T03:07:08.687Z,74.53
2023-04-19T03:08:09.559Z,74.84
2023-04-19T03:09:08.637Z,74.12
2023-04-19T03:10:08.604Z,74.02
2023-04-19T03:11:08.621Z,73.81
2023-04-19T03:12:08.586Z,73.91
2023-04-19T03:13:08.594Z,74.33
2023-04-19T03:14:08.589Z,74.33
2023-04-19T03:15:08.573Z,74.12
2023-04-19T03:16:08.600Z,74.33
2023-04-19T03:17:08.539Z,74.95
2023-04-19T03:18:08.516Z,75.05
2023-04-19T03:19:08.524Z,74.95
2023-04-19T03:20:08.489Z,75.05
2023-04-19T03:21:08.488Z,75.78
2023-04-19T03:22:08.483Z,75.88
2023-04-19T03:23:08.476Z,75.98
2023-04-19T03:24:08.499Z,75.78
2023-04-19T03:25:08.453Z,75.78
2023-04-19T03:26:08.429Z,75.67
2023-04-19T03:27:08.434Z,75.88
2023-04-19T03:28:08.412Z,75.57
2023-04-19T03:29:08.408Z,75.46
2023-04-19T03:30:08.332Z,75.36
2023-04-19T03:31:08.698Z,75.36
2023-04-19T03:32:08.382Z,76.43
2023-04-19T03:33:08.328Z,76.12
2023-04-19T03:34:08.316Z,76.32
2023-04-19T03:35:08.298Z,76.12
2023-04-19T03:36:08.415Z,76.43
2023-04-19T03:37:08.306Z,76.43
2023-04-19T03:38:08.498Z,75.81
2023-04-19T03:39:08.694Z,75.70
2023-04-19T03:40:08.231Z,75.50
2023-04-19T03:41:08.211Z,75.81
2023-04-19T03:42:08.252Z,75.91
2023-04-19T03:43:08.198Z,75.91
2023-04-19T03:44:08.208Z,76.01
2023-04-19T03:45:08.173Z,76.22
2023-04-19T03:46:08.223Z,76.32
2023-04-19T03:47:08.145Z,76.32
2023-04-19T03:48:08.178Z,76.67
2023-04-19T03:49:08.154Z,76.46
2023-04-19T03:50:08.136Z,76.57
2023-04-19T03:51:08.176Z,76.88
2023-04-19T03:52:08.105Z,77.09
2023-04-19T03:53:08.094Z,77.19
2023-04-19T03:54:08.099Z,77.19
2023-04-19T03:55:08.083Z,77.39
2023-04-19T03:56:08.052Z,77.60
2023-04-19T03:57:08.049Z,77.70
2023-04-19T03:58:08.055Z,77.91
2023-04-19T03:59:08.105Z,77.91
2023-04-19T04:00:08.008Z,77.81
2023-04-19T04:01:08.017Z,78.12
2023-04-19T04:02:08.079Z,78.22
2023-04-19T04:03:08.218Z,78.22
2023-04-19T04:04:08.230Z,78.33
2023-04-19T04:05:08.073Z,78.33
2023-04-19T04:06:07.945Z,78.43
2023-04-19T04:07:07.952Z,78.85
2023-04-19T04:08:07.935Z,78.74
2023-04-19T04:09:07.945Z,78.85
2023-04-19T04:10:07.909Z,78.74
2023-04-19T04:11:07.903Z,78.95
2023-04-19T04:12:07.881Z,79.05
2023-04-19T04:13:07.908Z,78.95
2023-04-19T04:14:07.881Z,79.16
2023-04-19T04:15:07.851Z,79.16
2023-04-19T04:16:07.924Z,79.16
2023-04-19T04:17:07.838Z,79.05
2023-04-19T04:18:09.098Z,79.05
2023-04-19T04:19:07.834Z,79.26
2023-04-19T04:20:07.809Z,79.47
2023-04-19T04:21:07.793Z,79.47
2023-04-19T04:22:07.785Z,79.57
2023-04-19T04:23:07.765Z,79.57
2023-04-19T04:24:07.808Z,79.88
2023-04-19T04:25:07.794Z,79.67
2023-04-19T04:26:07.731Z,79.88
2023-04-19T04:27:07.791Z,79.88
2023-04-19T04:28:07.713Z,79.88
2023-04-19T04:29:07.741Z,80.08
2023-04-19T04:30:07.692Z,80.60
2023-04-19T04:31:07.829Z,80.19
2023-04-19T04:32:07.710Z,80.29
2023-04-19T04:33:07.692Z,80.29
2023-04-19T04:34:07.705Z,80.40
2023-04-19T04:35:07.656Z,80.40
2023-04-19T04:36:09.718Z,80.81
2023-04-19T04:37:07.795Z,80.91
2023-04-19T04:38:17.435Z,81.02
2023-04-19T04:39:07.671Z,81.02
2023-04-19T04:40:07.878Z,80.91
2023-04-19T04:41:07.594Z,81.02
2023-04-19T04:42:07.583Z,81.02
2023-04-19T04:43:07.573Z,81.02
2023-04-19T04:44:22.573Z,81.23
2023-04-19T04:45:07.560Z,81.33
2023-04-19T04:46:07.595Z,81.33
2023-04-19T04:47:07.544Z,81.43
2023-04-19T04:48:07.772Z,81.43
2023-04-19T04:49:07.548Z,81.43
2023-04-19T04:50:07.520Z,81.54
2023-04-19T04:51:07.500Z,81.54
2023-04-19T04:52:07.597Z,81.64
2023-04-19T04:53:07.544Z,81.64
2023-04-19T04:54:07.461Z,81.74
2023-04-19T04:55:07.489Z,81.74
2023-04-19T04:56:07.444Z,81.70
2023-04-19T04:57:07.434Z,81.81
2023-04-19T04:58:07.434Z,81.70
2023-04-19T04:59:07.431Z,81.74
2023-04-19T05:00:07.410Z,81.70
2023-04-19T05:01:07.432Z,81.81
2023-04-19T05:02:07.865Z,81.91
2023-04-19T05:03:07.534Z,81.81
2023-04-19T05:04:07.370Z,81.81
2023-04-19T05:05:07.407Z,81.70
2023-04-19T05:06:07.348Z,81.81
2023-04-19T05:07:07.345Z,81.81
2023-04-19T05:08:07.534Z,81.91
2023-04-19T05:09:07.312Z,81.81
2023-04-19T05:10:07.635Z,81.77
2023-04-19T05:11:07.305Z,81.77
2023-04-19T05:12:07.276Z,81.70
2023-04-19T05:13:07.296Z,81.67
2023-04-19T05:14:07.272Z,81.46
2023-04-19T05:15:07.294Z,81.67
2023-04-19T05:16:07.278Z,81.77
2023-04-19T05:17:07.321Z,81.46
2023-04-19T05:18:07.218Z,81.56
2023-04-19T05:19:07.206Z,81.46
2023-04-19T05:20:07.197Z,81.46
2023-04-19T05:21:07.188Z,81.46
2023-04-19T05:22:07.176Z,81.25
2023-04-19T05:23:07.184Z,81.35
2023-04-19T05:24:07.141Z,81.46
2023-04-19T05:25:07.206Z,81.46
2023-04-19T05:26:07.143Z,81.25
2023-04-19T05:27:07.111Z,81.25
2023-04-19T05:28:07.131Z,81.15
2023-04-19T05:29:07.124Z,81.46
2023-04-19T05:30:07.079Z,81.21
2023-04-19T05:31:07.119Z,81.11
2023-04-19T05:32:07.057Z,81.01
2023-04-19T05:33:07.071Z,80.80
2023-04-19T05:34:07.069Z,80.80
2023-04-19T05:35:07.247Z,80.80
2023-04-19T05:36:07.028Z,80.70
2023-04-19T05:37:07.025Z,80.66
2023-04-19T05:38:07.167Z,80.56
2023-04-19T05:39:07.004Z,80.46
2023-04-19T05:40:06.965Z,80.25
2023-04-19T05:41:06.973Z,80.15
2023-04-19T05:42:06.965Z,80.15
2023-04-19T05:43:06.970Z,80.25
2023-04-19T05:44:06.962Z,80.25
2023-04-19T05:45:06.953Z,80.35
2023-04-19T05:46:06.957Z,80.15
2023-04-19T05:47:06.908Z,80.15
2023-04-19T05:48:07.034Z,80.15
2023-04-19T05:49:06.896Z,79.94
2023-04-19T05:50:06.876Z,79.94
2023-04-19T05:51:06.888Z,79.73
2023-04-19T05:52:06.888Z,79.90
2023-04-19T05:53:06.861Z,80.00
2023-04-19T05:54:06.838Z,79.69
2023-04-19T05:55:06.823Z,79.38
2023-04-19T05:56:06.840Z,79.38
2023-04-19T05:57:06.813Z,79.28
2023-04-19T05:58:06.801Z,79.28
2023-04-19T05:59:06.854Z,78.97
2023-04-19T06:00:06.795Z,78.87
2023-04-19T06:01:06.770Z,78.97
2023-04-19T06:02:06.856Z,78.77
2023-04-19T06:03:06.898Z,78.83
2023-04-19T06:04:06.876Z,78.83
2023-04-19T06:05:10.305Z,78.73
2023-04-19T06:06:06.747Z,78.63
2023-04-19T06:07:13.506Z,78.42
2023-04-19T06:08:06.768Z,78.21
2023-04-19T06:09:06.686Z,78.11
2023-04-19T06:10:06.673Z,77.91
2023-04-19T06:11:15.719Z,78.01
2023-04-19T06:12:06.692Z,78.08
2023-04-19T06:13:06.637Z,77.97
2023-04-19T06:14:06.653Z,77.87
2023-04-19T06:15:06.605Z,79.83
2023-04-19T06:16:06.670Z,79.38
2023-04-19T06:17:06.621Z,80.00
2023-04-19T06:18:06.629Z,81.71
2023-04-19T06:19:06.591Z,78.89
2023-04-19T06:20:06.565Z,79.06
2023-04-19T06:21:06.564Z,79.16
2023-04-19T06:22:06.626Z,75.52
2023-04-19T06:23:06.565Z,76.45
2023-04-19T06:24:06.564Z,74.98
2023-04-19T06:25:06.562Z,75.29
2023-04-19T06:26:06.582Z,73.26
2023-04-19T06:27:06.621Z,72.75
2023-04-19T06:28:06.509Z,73.06
2023-04-19T06:29:06.508Z,73.36
2023-04-19T06:30:06.493Z,73.40
2023-04-19T06:31:06.561Z,73.71
2023-04-19T06:32:06.503Z,74.02
2023-04-19T06:33:06.500Z,74.22
2023-04-19T06:34:06.456Z,74.22
2023-04-19T06:35:06.437Z,74.33
2023-04-19T06:36:06.436Z,73.71
2023-04-19T06:37:06.457Z,73.61
2023-04-19T06:38:06.449Z,73.64
2023-04-19T06:39:06.362Z,73.50
2023-04-19T06:40:06.427Z,73.40
2023-04-19T06:41:06.365Z,72.99
2023-04-19T06:42:06.470Z,73.30
2023-04-19T06:43:06.383Z,73.19
2023-04-19T06:44:06.412Z,72.88
2023-04-19T06:45:06.312Z,72.58
2023-04-19T06:46:06.379Z,72.24
2023-04-19T06:47:06.609Z,72.34
2023-04-19T06:48:06.333Z,72.24
2023-04-19T06:49:06.305Z,72.24
2023-04-19T06:50:06.309Z,71.92
2023-04-19T06:51:06.266Z,71.62
2023-04-19T06:52:06.330Z,71.41
2023-04-19T06:53:06.211Z,71.37
2023-04-19T06:54:06.365Z,71.48
2023-04-19T06:55:06.256Z,71.07
2023-04-19T06:56:06.362Z,70.25
2023-04-19T06:57:06.315Z,70.35
2023-04-19T06:58:06.319Z,70.14
2023-04-19T06:59:06.209Z,69.80
2023-04-19T07:00:06.234Z,69.60
2023-04-19T07:01:06.281Z,69.49
2023-04-19T07:02:06.258Z,69.80
2023-04-19T07:03:06.351Z,69.49
2023-04-19T07:04:06.227Z,69.29
2023-04-19T07:05:06.186Z,68.74
2023-04-19T07:06:06.124Z,68.54
2023-04-19T07:07:06.112Z,68.23
2023-04-19T07:08:06.281Z,68.02
2023-04-19T07:09:06.068Z,67.71
2023-04-19T07:10:06.068Z,67.27
2023-04-19T07:11:06.061Z,67.27
2023-04-19T07:12:06.057Z,66.66
2023-04-19T07:13:06.080Z,66.76
2023-04-19T07:14:06.029Z,66.35
2023-04-19T07:15:06.019Z,66.04
2023-04-19T07:16:06.017Z,65.60
2023-04-19T07:17:06.119Z,65.70
2023-04-19T07:18:06.137Z,65.19
2023-04-19T07:19:05.992Z,64.95
2023-04-19T07:20:05.990Z,64.31
2023-04-19T07:21:05.919Z,63.22
2023-04-19T07:22:05.914Z,61.80
2023-04-19T07:23:05.944Z,59.03
2023-04-19T07:24:05.894Z,56.48
2023-04-19T07:25:05.876Z,53.22
2023-04-19T07:26:05.878Z,50.98
2023-04-19T07:27:05.859Z,48.48
2023-04-19T07:28:05.878Z,46.81
2023-04-19T07:29:05.848Z,45.86
2023-04-19T07:30:05.833Z,44.78
2023-04-19T07:31:05.924Z,43.02
2023-04-19T07:32:06.011Z,42.78
2023-04-19T07:33:05.887Z,41.93
2023-04-19T07:34:05.847Z,41.20
2023-04-19T07:35:05.789Z,40.48
2023-04-19T07:36:05.770Z,40.26
2023-04-19T07:37:05.761Z,39.74
2023-04-19T07:38:05.749Z,39.40
2023-04-19T07:39:05.732Z,38.79
2023-04-19T07:40:05.736Z,38.48
2023-04-19T07:41:05.771Z,38.06
2023-04-19T07:42:05.763Z,37.26
2023-04-19T07:43:05.680Z,37.47
2023-04-19T07:44:05.682Z,37.44
2023-04-19T07:45:05.678Z,36.73
2023-04-19T07:46:05.724Z,36.82
2023-04-19T07:47:05.669Z,36.82
2023-04-19T07:48:05.692Z,36.23
2023-04-19T07:49:05.636Z,36.02
2023-04-19T07:50:05.614Z,36.00
2023-04-19T07:51:05.610Z,36.26
2023-04-19T07:52:05.611Z,34.84
2023-04-19T07:53:05.582Z,34.84
2023-04-19T07:54:05.588Z,34.89
2023-04-19T07:55:05.581Z,34.81
2023-04-19T07:56:05.556Z,35.71
2023-04-19T07:57:05.559Z,35.30
2023-04-19T07:58:05.536Z,34.78
2023-04-19T07:59:09.074Z,34.55
2023-04-19T08:00:05.522Z,33.73
2023-04-19T08:01:05.521Z,33.83
2023-04-19T08:02:05.553Z,33.61
2023-04-19T08:03:05.711Z,34.09
2023-04-19T08:04:05.909Z,32.58
2023-04-19T08:05:05.524Z,32.82
2023-04-19T08:06:05.512Z,33.12
2023-04-19T08:07:05.489Z,33.12
2023-04-19T08:08:05.448Z,33.23
2023-04-19T08:09:05.427Z,32.91
2023-04-19T08:10:05.521Z,32.62
2023-04-19T08:11:05.437Z,32.71
2023-04-19T08:12:05.393Z,32.79
2023-04-19T08:13:06.566Z,32.50
2023-04-19T08:14:18.183Z,32.48
2023-04-19T08:15:15.450Z,32.28
2023-04-19T08:16:32.224Z,32.29
2023-04-19T08:18:05.382Z,31.99
2023-04-19T08:19:05.370Z,32.59
2023-04-19T08:20:05.325Z,32.28
2023-04-19T08:21:05.300Z,32.11
2023-04-19T08:22:05.314Z,32.94
2023-04-19T08:23:18.108Z,33.17
2023-04-19T08:24:05.298Z,33.59
2023-04-19T08:25:05.272Z,34.61
2023-04-19T08:26:05.249Z,34.42
2023-04-19T08:27:05.282Z,34.84
2023-04-19T08:28:05.225Z,35.98
2023-04-19T08:29:05.252Z,35.98
2023-04-19T08:30:05.206Z,35.98
2023-04-19T08:31:05.187Z,35.48
2023-04-19T08:32:05.332Z,35.80
2023-04-19T08:33:05.211Z,36.27
2023-04-19T08:34:05.164Z,35.33
2023-04-19T08:35:05.158Z,34.61
2023-04-19T08:36:05.141Z,34.33
2023-04-19T08:37:05.295Z,35.01
2023-04-19T08:38:05.133Z,35.19
2023-04-19T08:39:08.457Z,34.63
2023-04-19T08:40:05.114Z,36.44
2023-04-19T08:41:05.125Z,38.10
2023-04-19T08:42:10.353Z,38.91
2023-04-19T08:43:05.062Z,36.92
2023-04-19T08:44:05.078Z,36.08
2023-04-19T08:46:05.090Z,35.21
2023-04-19T08:47:05.052Z,34.39
2023-04-19T08:48:05.172Z,34.46
2023-04-19T08:49:05.024Z,34.08
2023-04-19T08:50:17.136Z,35.57
2023-04-19T08:51:05.953Z,36.84
2023-04-19T08:52:05.120Z,38.73
2023-04-19T08:53:20.990Z,39.89
2023-04-19T08:54:04.966Z,40.45
2023-04-19T08:55:04.982Z,41.69
2023-04-19T08:56:17.499Z,41.89
2023-04-19T08:57:04.958Z,41.89
2023-04-19T08:58:09.621Z,41.97
2023-04-19T09:00:04.897Z,39.43
2023-04-19T09:01:04.985Z,37.83
2023-04-19T09:02:04.974Z,36.27
2023-04-19T09:03:05.133Z,35.31
2023-04-19T09:04:17.175Z,34.49
2023-04-19T09:05:04.973Z,34.38
2023-04-19T09:06:05.006Z,34.05
2023-04-19T09:07:04.867Z,33.91
2023-04-19T09:08:04.812Z,32.98
2023-04-19T09:09:04.936Z,32.55
2023-04-19T09:10:05.399Z,32.17
2023-04-19T09:11:04.790Z,31.99
2023-04-19T09:12:04.801Z,33.71
2023-04-19T09:13:04.781Z,35.78
2023-04-19T09:14:04.803Z,36.29
2023-04-19T09:15:04.795Z,36.07
2023-04-19T09:16:04.874Z,35.26
2023-04-19T09:17:04.734Z,35.23
2023-04-19T09:18:04.778Z,34.92
2023-04-19T09:20:04.690Z,34.89
2023-04-19T09:21:04.701Z,34.38
2023-04-19T09:22:04.680Z,33.96
2023-04-19T09:23:04.715Z,33.26
2023-04-19T09:24:04.647Z,33.36
2023-04-19T09:27:04.611Z,31.82
2023-04-19T09:28:04.598Z,31.68
2023-04-19T09:29:04.631Z,31.70
2023-04-19T09:30:04.585Z,32.01
2023-04-19T09:31:17.337Z,34.09
2023-04-19T09:32:04.609Z,34.83
2023-04-19T09:33:04.646Z,33.36
2023-04-19T09:34:04.538Z,32.44
2023-04-19T09:35:04.522Z,32.86
2023-04-19T09:36:04.546Z,34.14
2023-04-19T09:37:12.213Z,34.83
2023-04-19T09:38:06.579Z,34.96
2023-04-19T09:39:04.491Z,34.06
2023-04-19T09:40:04.472Z,32.44
2023-04-19T09:41:04.499Z,32.32
2023-04-19T09:42:04.472Z,32.43
2023-04-19T09:43:17.852Z,32.53
2023-04-19T09:46:04.462Z,33.47
2023-04-19T09:47:04.486Z,33.98
2023-04-19T09:48:04.600Z,33.37
2023-04-19T09:49:13.077Z,33.16
2023-04-19T09:50:14.977Z,32.77
2023-04-19T09:51:08.401Z,33.16
2023-04-19T09:52:04.429Z,32.94
2023-04-19T09:53:04.344Z,32.74
2023-04-19T09:54:04.352Z,32.44
2023-04-19T09:55:11.399Z,32.77
2023-04-19T09:56:04.656Z,33.19
2023-04-19T09:57:04.291Z,33.91
2023-04-19T09:58:04.288Z,33.89
2023-04-19T09:59:17.152Z,33.28
2023-04-19T10:00:04.272Z,33.36
2023-04-19T10:01:14.102Z,32.82
2023-04-19T10:02:04.386Z,32.61
2023-04-19T10:03:04.349Z,32.31
2023-04-19T10:04:19.998Z,32.44
2023-04-19T10:05:19.691Z,33.28
2023-04-19T10:06:10.564Z,33.69
2023-04-19T10:08:04.223Z,34.08
2023-04-19T10:09:04.175Z,34.09
2023-04-19T10:10:18.725Z,34.01
2023-04-19T10:11:04.171Z,34.33
2023-04-19T10:12:18.495Z,34.74
2023-04-19T10:14:04.123Z,35.28
2023-04-19T10:15:04.126Z,35.30
2023-04-19T10:16:15.584Z,35.93
2023-04-19T10:17:04.162Z,36.55
2023-04-19T10:18:04.117Z,37.58
2023-04-19T10:19:04.120Z,37.92
2023-04-19T10:20:04.072Z,37.73
2023-04-19T10:21:04.080Z,38.35
2023-04-19T10:22:04.053Z,39.48
2023-04-19T10:23:04.049Z,38.86
2023-04-19T10:24:04.020Z,37.92
2023-04-19T10:25:04.057Z,37.49
2023-04-19T10:26:04.035Z,37.07
2023-04-19T10:27:04.003Z,37.06
2023-04-19T10:28:04.001Z,36.52
2023-04-19T10:29:03.969Z,35.90
2023-04-19T10:30:06.327Z,35.71
2023-04-19T10:31:03.962Z,37.18
2023-04-19T10:32:04.032Z,36.52
2023-04-19T10:33:03.973Z,37.07
2023-04-19T10:34:03.940Z,37.82
2023-04-19T10:35:04.002Z,37.01
2023-04-19T10:36:03.926Z,37.43
2023-04-19T10:37:03.888Z,37.85
2023-04-19T10:38:03.894Z,37.41
2023-04-19T10:39:03.868Z,36.25
2023-04-19T10:40:03.871Z,35.18
2023-04-19T10:41:03.897Z,34.54
2023-04-19T10:42:03.842Z,34.04
2023-04-19T10:43:03.824Z,35.30
2023-04-19T10:44:03.823Z,35.39
2023-04-19T10:45:03.818Z,36.02
2023-04-19T10:46:03.859Z,35.58
2023-04-19T10:47:03.798Z,35.28
2023-04-19T10:48:03.794Z,35.08
2023-04-19T10:49:03.761Z,35.30
2023-04-19T10:50:03.777Z,36.04
2023-04-19T10:51:03.800Z,36.77
2023-04-19T10:52:03.736Z,37.19
2023-04-19T10:53:03.746Z,36.76
2023-04-19T10:54:03.728Z,36.35
2023-04-19T10:55:03.769Z,36.25
2023-04-19T10:56:03.717Z,36.46
2023-04-19T10:57:03.683Z,36.99
2023-04-19T10:58:03.690Z,37.84
2023-04-19T10:59:03.662Z,38.15
2023-04-19T11:00:03.665Z,39.50
2023-04-19T11:01:03.713Z,39.81
2023-04-19T11:02:03.765Z,40.23
2023-04-19T11:03:03.765Z,39.87
2023-04-19T11:04:03.803Z,39.59
2023-04-19T11:05:03.610Z,39.69
2023-04-19T11:06:03.667Z,39.89
2023-04-19T11:07:03.610Z,40.33
2023-04-19T11:08:03.575Z,40.95
2023-04-19T11:09:03.555Z,41.56
2023-04-19T11:10:03.577Z,41.69
2023-04-19T11:11:03.567Z,41.91
2023-04-19T11:12:03.541Z,42.09
2023-04-19T11:13:03.524Z,41.87
2023-04-19T11:14:03.510Z,41.32
2023-04-19T11:15:03.495Z,40.28
2023-04-19T11:16:03.587Z,39.33
2023-04-19T11:17:03.488Z,38.39
2023-04-19T11:18:12.559Z,37.66
2023-04-19T11:19:03.529Z,38.40
2023-04-19T11:20:03.448Z,38.81
2023-04-19T11:21:03.466Z,38.30
2023-04-19T11:22:03.458Z,38.18
2023-04-19T11:23:03.421Z,37.54
2023-04-19T11:24:03.415Z,36.90
2023-04-19T11:25:03.426Z,37.02
2023-04-19T11:26:03.427Z,37.78
2023-04-19T11:27:03.379Z,38.00
2023-04-19T11:28:03.369Z,38.96
2023-04-19T11:29:03.366Z,39.39
2023-04-19T11:30:03.362Z,39.91
2023-04-19T11:31:03.400Z,40.01
2023-04-19T11:32:03.357Z,40.21
2023-04-19T11:33:03.349Z,40.21
2023-04-19T11:34:03.335Z,40.61
2023-04-19T11:35:03.307Z,40.94
2023-04-19T11:36:03.309Z,41.24
2023-04-19T11:37:03.372Z,41.04
2023-04-19T11:38:03.263Z,40.50
2023-04-19T11:39:03.304Z,39.57
2023-04-19T11:40:04.873Z,40.19
2023-04-19T11:41:03.275Z,40.31
2023-04-19T11:42:03.231Z,40.73
2023-04-19T11:43:03.267Z,40.86
2023-04-19T11:44:03.207Z,41.58
2023-04-19T11:45:03.243Z,42.41
2023-04-19T11:46:03.235Z,42.43
2023-04-19T11:47:03.327Z,43.06
2023-04-19T11:48:03.206Z,43.47
2023-04-19T11:49:03.153Z,43.69
2023-04-19T11:50:03.154Z,43.59
2023-04-19T11:51:03.174Z,43.51
2023-04-19T11:52:05.490Z,43.61
2023-04-19T11:53:03.116Z,43.81
2023-04-19T11:54:03.137Z,44.04
2023-04-19T11:55:03.088Z,44.34
2023-04-19T11:56:03.149Z,44.44
2023-04-19T11:57:03.082Z,44.34
2023-04-19T11:58:03.089Z,43.91
2023-04-19T11:59:03.094Z,43.59
2023-04-19T12:00:03.042Z,42.78
2023-04-19T12:01:03.062Z,42.66
2023-04-19T12:02:03.042Z,42.13
2023-04-19T12:03:03.241Z,41.71
2023-04-19T12:04:03.121Z,40.77
2023-04-19T12:05:03.215Z,40.67
2023-04-19T12:06:03.047Z,40.27
2023-04-19T12:07:02.994Z,39.86
2023-04-19T12:08:02.969Z,39.66
2023-04-19T12:09:03.004Z,39.86
2023-04-19T12:10:02.941Z,39.75
2023-04-19T12:11:02.962Z,39.86
2023-04-19T12:12:02.932Z,40.39
2023-04-19T12:13:02.910Z,40.59
2023-04-19T12:14:02.901Z,40.49
2023-04-19T12:15:02.944Z,40.91
2023-04-19T12:16:02.888Z,41.42
2023-04-19T12:17:02.973Z,41.52
2023-04-19T12:18:02.924Z,41.83
2023-04-19T12:19:02.859Z,41.95
2023-04-19T12:20:02.868Z,42.66
2023-04-19T12:21:02.876Z,42.78
2023-04-19T12:22:02.814Z,42.88
2023-04-19T12:23:02.801Z,43.30
2023-04-19T12:24:02.786Z,43.30
2023-04-19T12:25:02.777Z,43.30
2023-04-19T12:26:02.812Z,43.41
2023-04-19T12:28:14.580Z,43.51
2023-04-19T12:28:19.688Z,43.59
2023-04-19T12:29:02.775Z,43.38
2023-04-19T12:30:02.747Z,43.06
2023-04-19T12:31:02.728Z,42.66
2023-04-19T12:32:02.761Z,42.54
2023-04-19T12:33:02.705Z,42.94
2023-04-19T12:34:02.670Z,42.54
2023-04-19T12:35:02.674Z,42.54
2023-04-19T12:36:02.689Z,42.63
2023-04-19T12:37:02.681Z,42.54
2023-04-19T12:38:02.697Z,42.63
2023-04-19T12:39:02.659Z,42.54
2023-04-19T12:40:02.613Z,42.54
2023-04-19T12:41:02.681Z,42.54
2023-04-19T12:42:02.593Z,42.21
2023-04-19T12:43:02.597Z,42.52
2023-04-19T12:44:02.578Z,42.31
2023-04-19T12:45:02.565Z,41.78
2023-04-19T12:46:02.576Z,41.55
2023-04-19T12:47:02.561Z,41.12
2023-04-19T12:48:02.645Z,40.52
2023-04-19T12:49:02.528Z,40.31
2023-04-19T12:50:02.524Z,40.52
2023-04-19T12:51:02.541Z,40.64
2023-04-19T12:52:02.490Z,40.84
2023-04-19T12:53:02.481Z,40.31
2023-04-19T12:54:02.542Z,39.79
2023-04-19T12:55:02.466Z,39.25
2023-04-19T12:56:02.465Z,38.73
2023-04-19T12:57:03.571Z,38.71
2023-04-19T12:58:02.435Z,38.81
2023-04-19T12:59:02.456Z,38.91
2023-04-19T13:00:02.401Z,39.23
2023-04-19T13:01:02.513Z,38.81
2023-04-19T13:02:02.576Z,44.35